Del Norte, Astronaut Kent Rominger Airport (KRCV)

NameAstronaut Kent Rominger Airport
CityDel Norte
CountryUnited States
ICAOKRCV
IATA
Altitude2423 m
CoordinatesGoogle Map
Live Air TrafficLiveATC.net
METARKRCV 180555Z AUTO 24004KT 10SM CLR 06/M09 A2989 RMK AO2 T00551088 10165 20049
2019-10-18 05:55:00 Wind: Southwest (240°) 2.06 m/s - Visibility: 16093.4 m - Temperature: 6 °C - Dew point: -9 °C - Humidity: 33.5% - Pressure: 1012.19 hPa
Statistics

The table below shows the detailed information of all flights to/from Del Norte, Astronaut Kent Rominger Airport (KRCV).